sensor_id;sensor_type;location;lat;lon;timestamp;P1;durP1;ratioP1;P2;durP2;ratioP2
22121;SDS011;11227;53.046;10.512;2022-12-18T00:00:16;49.08;;;21.00;;
22121;SDS011;11227;53.046;10.512;2022-12-18T00:04:22;43.97;;;20.98;;
22121;SDS011;11227;53.046;10.512;2022-12-18T00:08:25;54.45;;;22.80;;
22121;SDS011;11227;53.046;10.512;2022-12-18T00:12:26;42.33;;;20.90;;
22121;SDS011;11227;53.046;10.512;2022-12-18T00:16:30;45.47;;;22.08;;
22121;SDS011;11227;53.046;10.512;2022-12-18T00:20:37;43.28;;;19.85;;
22121;SDS011;11227;53.046;10.512;2022-12-18T00:24:40;46.95;;;20.45;;
22121;SDS011;11227;53.046;10.512;2022-12-18T00:28:43;42.58;;;19.55;;
22121;SDS011;11227;53.046;10.512;2022-12-18T00:32:45;44.78;;;20.27;;
22121;SDS011;11227;53.046;10.512;2022-12-18T00:36:47;41.53;;;20.20;;
22121;SDS011;11227;53.046;10.512;2022-12-18T00:40:48;41.70;;;19.65;;
22121;SDS011;11227;53.046;10.512;2022-12-18T00:44:51;40.03;;;18.48;;
22121;SDS011;11227;53.046;10.512;2022-12-18T00:48:52;45.28;;;18.95;;
22121;SDS011;11227;53.046;10.512;2022-12-18T00:52:54;41.92;;;19.20;;
22121;SDS011;11227;53.046;10.512;2022-12-18T00:56:56;41.47;;;19.20;;
22121;SDS011;11227;53.046;10.512;2022-12-18T01:00:57;40.10;;;19.40;;
22121;SDS011;11227;53.046;10.512;2022-12-18T01:04:59;39.17;;;17.80;;
22121;SDS011;11227;53.046;10.512;2022-12-18T01:09:01;42.95;;;18.48;;
22121;SDS011;11227;53.046;10.512;2022-12-18T01:13:03;37.58;;;18.08;;
22121;SDS011;11227;53.046;10.512;2022-12-18T01:17:05;37.22;;;16.52;;
22121;SDS011;11227;53.046;10.512;2022-12-18T01:21:08;38.85;;;18.35;;
22121;SDS011;11227;53.046;10.512;2022-12-18T01:25:11;37.08;;;17.10;;
22121;SDS011;11227;53.046;10.512;2022-12-18T01:29:12;33.20;;;17.75;;
22121;SDS011;11227;53.046;10.512;2022-12-18T01:33:14;33.47;;;15.98;;
22121;SDS011;11227;53.046;10.512;2022-12-18T01:37:16;34.70;;;16.83;;
22121;SDS011;11227;53.046;10.512;2022-12-18T01:41:18;34.88;;;16.92;;
22121;SDS011;11227;53.046;10.512;2022-12-18T01:45:27;33.65;;;15.98;;
22121;SDS011;11227;53.046;10.512;2022-12-18T01:49:30;34.88;;;16.90;;
22121;SDS011;11227;53.046;10.512;2022-12-18T01:53:32;28.38;;;14.75;;
22121;SDS011;11227;53.046;10.512;2022-12-18T01:57:34;34.63;;;15.73;;
22121;SDS011;11227;53.046;10.512;2022-12-18T02:01:36;30.77;;;15.50;;
22121;SDS011;11227;53.046;10.512;2022-12-18T02:10:24;30.65;;;15.68;;
22121;SDS011;11227;53.046;10.512;2022-12-18T02:18:38;26.73;;;13.98;;
22121;SDS011;11227;53.046;10.512;2022-12-18T02:23:00;27.00;;;14.40;;
22121;SDS011;11227;53.046;10.512;2022-12-18T02:27:10;26.92;;;14.20;;
22121;SDS011;11227;53.046;10.512;2022-12-18T02:31:14;27.25;;;14.60;;
22121;SDS011;11227;53.046;10.512;2022-12-18T02:35:24;25.23;;;13.35;;
22121;SDS011;11227;53.046;10.512;2022-12-18T02:39:28;31.52;;;15.52;;
22121;SDS011;11227;53.046;10.512;2022-12-18T02:43:32;32.50;;;14.65;;
22121;SDS011;11227;53.046;10.512;2022-12-18T02:47:35;30.23;;;14.50;;
22121;SDS011;11227;53.046;10.512;2022-12-18T02:51:50;25.52;;;13.55;;
22121;SDS011;11227;53.046;10.512;2022-12-18T02:56:15;27.08;;;14.40;;
22121;SDS011;11227;53.046;10.512;2022-12-18T03:00:28;24.23;;;13.20;;
22121;SDS011;11227;53.046;10.512;2022-12-18T03:04:42;21.25;;;12.05;;
22121;SDS011;11227;53.046;10.512;2022-12-18T03:08:51;25.40;;;12.98;;
22121;SDS011;11227;53.046;10.512;2022-12-18T03:13:22;26.60;;;13.65;;
22121;SDS011;11227;53.046;10.512;2022-12-18T03:17:25;24.77;;;12.68;;
22121;SDS011;11227;53.046;10.512;2022-12-18T03:21:30;22.77;;;11.88;;
22121;SDS011;11227;53.046;10.512;2022-12-18T03:25:44;23.77;;;13.02;;
22121;SDS011;11227;53.046;10.512;2022-12-18T03:29:52;23.98;;;12.93;;
22121;SDS011;11227;53.046;10.512;2022-12-18T03:34:17;25.98;;;12.45;;
22121;SDS011;11227;53.046;10.512;2022-12-18T03:38:24;24.58;;;11.48;;
22121;SDS011;11227;53.046;10.512;2022-12-18T03:42:28;25.73;;;12.07;;
22121;SDS011;11227;53.046;10.512;2022-12-18T03:51:37;24.70;;;11.55;;
22121;SDS011;11227;53.046;10.512;2022-12-18T03:55:43;21.90;;;11.50;;
22121;SDS011;11227;53.046;10.512;2022-12-18T03:59:47;22.08;;;11.50;;
22121;SDS011;11227;53.046;10.512;2022-12-18T04:03:53;22.75;;;11.82;;
22121;SDS011;11227;53.046;10.512;2022-12-18T04:07:56;23.63;;;11.05;;
22121;SDS011;11227;53.046;10.512;2022-12-18T04:11:59;21.90;;;11.20;;
22121;SDS011;11227;53.046;10.512;2022-12-18T04:16:00;20.80;;;10.60;;
22121;SDS011;11227;53.046;10.512;2022-12-18T04:20:03;18.13;;;10.48;;
22121;SDS011;11227;53.046;10.512;2022-12-18T04:24:05;21.15;;;10.15;;
22121;SDS011;11227;53.046;10.512;2022-12-18T04:28:07;19.83;;;10.70;;
22121;SDS011;11227;53.046;10.512;2022-12-18T04:32:09;22.67;;;11.13;;
22121;SDS011;11227;53.046;10.512;2022-12-18T04:36:10;22.13;;;10.95;;
22121;SDS011;11227;53.046;10.512;2022-12-18T04:40:13;17.88;;;10.30;;
22121;SDS011;11227;53.046;10.512;2022-12-18T04:44:15;21.15;;;11.27;;
22121;SDS011;11227;53.046;10.512;2022-12-18T04:48:17;16.20;;;8.73;;
22121;SDS011;11227;53.046;10.512;2022-12-18T04:52:19;17.67;;;9.23;;
22121;SDS011;11227;53.046;10.512;2022-12-18T04:56:20;15.90;;;9.18;;
22121;SDS011;11227;53.046;10.512;2022-12-18T05:00:23;17.02;;;9.82;;
22121;SDS011;11227;53.046;10.512;2022-12-18T05:04:24;19.50;;;10.32;;
22121;SDS011;11227;53.046;10.512;2022-12-18T05:08:26;18.10;;;8.88;;
22121;SDS011;11227;53.046;10.512;2022-12-18T05:12:28;17.98;;;9.20;;
22121;SDS011;11227;53.046;10.512;2022-12-18T05:16:31;17.00;;;9.15;;
22121;SDS011;11227;53.046;10.512;2022-12-18T05:20:33;16.48;;;8.60;;
22121;SDS011;11227;53.046;10.512;2022-12-18T05:24:35;13.73;;;8.32;;
22121;SDS011;11227;53.046;10.512;2022-12-18T05:28:36;14.75;;;8.57;;
22121;SDS011;11227;53.046;10.512;2022-12-18T05:32:38;14.40;;;8.18;;
22121;SDS011;11227;53.046;10.512;2022-12-18T05:36:41;14.52;;;7.90;;
22121;SDS011;11227;53.046;10.512;2022-12-18T05:40:42;16.23;;;8.52;;
22121;SDS011;11227;53.046;10.512;2022-12-18T05:44:44;15.32;;;8.40;;
22121;SDS011;11227;53.046;10.512;2022-12-18T05:48:46;15.90;;;8.98;;
22121;SDS011;11227;53.046;10.512;2022-12-18T05:52:48;12.20;;;7.70;;
22121;SDS011;11227;53.046;10.512;2022-12-18T05:56:49;14.95;;;7.57;;
22121;SDS011;11227;53.046;10.512;2022-12-18T06:00:51;14.25;;;7.97;;
22121;SDS011;11227;53.046;10.512;2022-12-18T06:04:52;14.60;;;7.82;;
22121;SDS011;11227;53.046;10.512;2022-12-18T06:08:55;15.23;;;7.78;;
22121;SDS011;11227;53.046;10.512;2022-12-18T06:12:58;15.98;;;8.25;;
22121;SDS011;11227;53.046;10.512;2022-12-18T06:17:00;14.35;;;7.75;;
22121;SDS011;11227;53.046;10.512;2022-12-18T06:21:02;14.07;;;7.78;;
22121;SDS011;11227;53.046;10.512;2022-12-18T06:25:04;11.90;;;7.22;;
22121;SDS011;11227;53.046;10.512;2022-12-18T06:29:08;13.02;;;7.35;;
22121;SDS011;11227;53.046;10.512;2022-12-18T06:33:09;13.70;;;7.45;;
22121;SDS011;11227;53.046;10.512;2022-12-18T06:37:11;13.35;;;7.22;;
22121;SDS011;11227;53.046;10.512;2022-12-18T06:41:13;14.73;;;7.15;;
22121;SDS011;11227;53.046;10.512;2022-12-18T06:45:20;15.52;;;8.15;;
22121;SDS011;11227;53.046;10.512;2022-12-18T06:49:21;11.60;;;7.53;;
22121;SDS011;11227;53.046;10.512;2022-12-18T06:53:31;11.57;;;7.50;;
22121;SDS011;11227;53.046;10.512;2022-12-18T06:57:33;12.35;;;7.00;;
22121;SDS011;11227;53.046;10.512;2022-12-18T07:01:35;13.07;;;7.30;;
22121;SDS011;11227;53.046;10.512;2022-12-18T07:05:40;13.48;;;7.70;;
22121;SDS011;11227;53.046;10.512;2022-12-18T07:09:42;11.20;;;7.00;;
22121;SDS011;11227;53.046;10.512;2022-12-18T07:13:44;14.85;;;7.15;;
22121;SDS011;11227;53.046;10.512;2022-12-18T07:17:47;11.80;;;6.97;;
22121;SDS011;11227;53.046;10.512;2022-12-18T07:21:49;9.88;;;6.35;;
22121;SDS011;11227;53.046;10.512;2022-12-18T07:25:51;10.88;;;6.47;;
22121;SDS011;11227;53.046;10.512;2022-12-18T07:29:53;13.38;;;6.97;;
22121;SDS011;11227;53.046;10.512;2022-12-18T07:33:56;9.93;;;6.35;;
22121;SDS011;11227;53.046;10.512;2022-12-18T07:37:57;10.90;;;6.75;;
22121;SDS011;11227;53.046;10.512;2022-12-18T07:41:59;11.45;;;6.75;;
22121;SDS011;11227;53.046;10.512;2022-12-18T07:46:21;10.25;;;6.40;;
22121;SDS011;11227;53.046;10.512;2022-12-18T07:50:23;10.80;;;6.57;;
22121;SDS011;11227;53.046;10.512;2022-12-18T07:54:25;11.35;;;7.07;;
22121;SDS011;11227;53.046;10.512;2022-12-18T07:58:27;12.73;;;7.15;;
22121;SDS011;11227;53.046;10.512;2022-12-18T08:02:30;9.32;;;6.13;;
22121;SDS011;11227;53.046;10.512;2022-12-18T08:06:32;9.80;;;6.00;;
22121;SDS011;11227;53.046;10.512;2022-12-18T08:10:34;12.05;;;6.57;;
22121;SDS011;11227;53.046;10.512;2022-12-18T08:14:36;9.77;;;6.63;;
22121;SDS011;11227;53.046;10.512;2022-12-18T08:18:38;10.90;;;6.13;;
22121;SDS011;11227;53.046;10.512;2022-12-18T08:22:40;9.05;;;5.63;;
22121;SDS011;11227;53.046;10.512;2022-12-18T08:26:43;9.57;;;6.13;;
22121;SDS011;11227;53.046;10.512;2022-12-18T08:31:04;10.95;;;6.07;;
22121;SDS011;11227;53.046;10.512;2022-12-18T08:35:06;8.65;;;5.65;;
22121;SDS011;11227;53.046;10.512;2022-12-18T08:39:10;7.65;;;5.15;;
22121;SDS011;11227;53.046;10.512;2022-12-18T08:43:12;9.95;;;5.65;;
22121;SDS011;11227;53.046;10.512;2022-12-18T08:47:32;10.02;;;6.18;;
22121;SDS011;11227;53.046;10.512;2022-12-18T08:51:34;8.57;;;4.95;;
22121;SDS011;11227;53.046;10.512;2022-12-18T08:55:37;8.35;;;5.25;;
22121;SDS011;11227;53.046;10.512;2022-12-18T08:59:38;8.55;;;5.57;;
22121;SDS011;11227;53.046;10.512;2022-12-18T09:03:40;8.73;;;5.57;;
22121;SDS011;11227;53.046;10.512;2022-12-18T09:07:43;9.75;;;5.57;;
22121;SDS011;11227;53.046;10.512;2022-12-18T09:11:45;10.05;;;5.93;;
22121;SDS011;11227;53.046;10.512;2022-12-18T09:15:48;8.82;;;5.32;;
22121;SDS011;11227;53.046;10.512;2022-12-18T09:19:51;9.05;;;6.20;;
22121;SDS011;11227;53.046;10.512;2022-12-18T09:23:53;12.40;;;6.18;;
22121;SDS011;11227;53.046;10.512;2022-12-18T09:27:56;9.40;;;5.72;;
22121;SDS011;11227;53.046;10.512;2022-12-18T09:31:57;8.82;;;5.38;;
22121;SDS011;11227;53.046;10.512;2022-12-18T09:36:00;9.05;;;5.45;;
22121;SDS011;11227;53.046;10.512;2022-12-18T09:40:04;8.52;;;5.32;;
22121;SDS011;11227;53.046;10.512;2022-12-18T09:44:12;8.93;;;5.78;;
22121;SDS011;11227;53.046;10.512;2022-12-18T09:48:22;8.75;;;5.43;;
22121;SDS011;11227;53.046;10.512;2022-12-18T09:52:30;10.02;;;5.72;;
22121;SDS011;11227;53.046;10.512;2022-12-18T09:56:38;9.65;;;5.68;;
22121;SDS011;11227;53.046;10.512;2022-12-18T10:00:43;12.70;;;6.07;;
22121;SDS011;11227;53.046;10.512;2022-12-18T10:04:47;8.77;;;5.50;;
22121;SDS011;11227;53.046;10.512;2022-12-18T10:17:38;9.38;;;4.97;;
22121;SDS011;11227;53.046;10.512;2022-12-18T10:26:16;11.57;;;5.30;;
22121;SDS011;11227;53.046;10.512;2022-12-18T10:30:19;8.40;;;5.15;;
22121;SDS011;11227;53.046;10.512;2022-12-18T10:34:23;10.43;;;5.13;;
22121;SDS011;11227;53.046;10.512;2022-12-18T10:38:29;9.65;;;5.60;;
22121;SDS011;11227;53.046;10.512;2022-12-18T10:42:32;8.23;;;4.45;;
22121;SDS011;11227;53.046;10.512;2022-12-18T10:46:34;7.82;;;5.22;;
22121;SDS011;11227;53.046;10.512;2022-12-18T10:50:36;11.85;;;5.80;;
22121;SDS011;11227;53.046;10.512;2022-12-18T10:54:59;12.18;;;5.85;;
22121;SDS011;11227;53.046;10.512;2022-12-18T10:59:05;9.40;;;5.75;;
22121;SDS011;11227;53.046;10.512;2022-12-18T11:03:28;10.88;;;6.45;;
22121;SDS011;11227;53.046;10.512;2022-12-18T11:07:50;12.07;;;6.60;;
22121;SDS011;11227;53.046;10.512;2022-12-18T11:11:55;11.30;;;6.70;;
22121;SDS011;11227;53.046;10.512;2022-12-18T11:16:00;8.35;;;5.50;;
22121;SDS011;11227;53.046;10.512;2022-12-18T11:24:15;9.68;;;5.93;;
22121;SDS011;11227;53.046;10.512;2022-12-18T11:28:42;12.10;;;6.32;;
22121;SDS011;11227;53.046;10.512;2022-12-18T11:32:51;12.40;;;6.05;;
22121;SDS011;11227;53.046;10.512;2022-12-18T11:37:03;10.45;;;5.47;;
22121;SDS011;11227;53.046;10.512;2022-12-18T11:41:27;8.77;;;5.85;;
22121;SDS011;11227;53.046;10.512;2022-12-18T11:45:59;12.02;;;5.85;;
22121;SDS011;11227;53.046;10.512;2022-12-18T11:50:10;12.25;;;6.50;;
22121;SDS011;11227;53.046;10.512;2022-12-18T11:54:18;11.23;;;6.40;;
22121;SDS011;11227;53.046;10.512;2022-12-18T12:11:34;10.48;;;5.57;;
22121;SDS011;11227;53.046;10.512;2022-12-18T12:15:48;9.02;;;5.10;;
22121;SDS011;11227;53.046;10.512;2022-12-18T12:20:52;11.43;;;5.68;;
22121;SDS011;11227;53.046;10.512;2022-12-18T12:42:10;10.10;;;5.75;;
22121;SDS011;11227;53.046;10.512;2022-12-18T12:46:36;12.43;;;6.25;;
22121;SDS011;11227;53.046;10.512;2022-12-18T12:50:40;11.23;;;6.00;;
22121;SDS011;11227;53.046;10.512;2022-12-18T12:54:43;11.85;;;6.63;;
22121;SDS011;11227;53.046;10.512;2022-12-18T12:58:55;12.57;;;6.75;;
22121;SDS011;11227;53.046;10.512;2022-12-18T13:03:15;10.30;;;6.22;;
22121;SDS011;11227;53.046;10.512;2022-12-18T13:07:45;10.43;;;6.38;;
22121;SDS011;11227;53.046;10.512;2022-12-18T13:11:52;10.88;;;6.20;;
22121;SDS011;11227;53.046;10.512;2022-12-18T13:16:12;11.90;;;6.65;;
22121;SDS011;11227;53.046;10.512;2022-12-18T13:20:20;8.35;;;5.25;;
22121;SDS011;11227;53.046;10.512;2022-12-18T13:32:34;10.52;;;6.35;;
22121;SDS011;11227;53.046;10.512;2022-12-18T13:36:36;12.90;;;6.47;;
22121;SDS011;11227;53.046;10.512;2022-12-18T13:44:48;12.98;;;7.18;;
22121;SDS011;11227;53.046;10.512;2022-12-18T13:48:55;11.57;;;6.55;;
22121;SDS011;11227;53.046;10.512;2022-12-18T13:52:58;12.60;;;7.15;;
22121;SDS011;11227;53.046;10.512;2022-12-18T13:57:01;13.25;;;7.43;;
22121;SDS011;11227;53.046;10.512;2022-12-18T14:01:03;13.23;;;9.48;;
22121;SDS011;11227;53.046;10.512;2022-12-18T14:05:20;12.85;;;10.45;;
22121;SDS011;11227;53.046;10.512;2022-12-18T14:09:29;15.45;;;12.32;;
22121;SDS011;11227;53.046;10.512;2022-12-18T14:13:36;16.00;;;12.32;;
22121;SDS011;11227;53.046;10.512;2022-12-18T14:17:42;15.68;;;13.45;;
22121;SDS011;11227;53.046;10.512;2022-12-18T14:21:45;16.88;;;13.60;;
22121;SDS011;11227;53.046;10.512;2022-12-18T14:25:49;17.17;;;14.18;;
22121;SDS011;11227;53.046;10.512;2022-12-18T14:29:51;15.90;;;14.02;;
22121;SDS011;11227;53.046;10.512;2022-12-18T14:33:55;19.88;;;15.20;;
22121;SDS011;11227;53.046;10.512;2022-12-18T14:38:15;17.02;;;15.20;;
22121;SDS011;11227;53.046;10.512;2022-12-18T14:42:19;18.90;;;15.13;;
22121;SDS011;11227;53.046;10.512;2022-12-18T14:50:38;17.48;;;15.68;;
22121;SDS011;11227;53.046;10.512;2022-12-18T14:54:40;18.92;;;16.67;;
22121;SDS011;11227;53.046;10.512;2022-12-18T14:58:51;19.05;;;17.05;;
22121;SDS011;11227;53.046;10.512;2022-12-18T15:02:55;19.25;;;17.25;;
22121;SDS011;11227;53.046;10.512;2022-12-18T15:07:05;20.08;;;18.05;;
22121;SDS011;11227;53.046;10.512;2022-12-18T15:19:36;21.00;;;17.35;;
22121;SDS011;11227;53.046;10.512;2022-12-18T15:27:45;19.52;;;17.63;;
22121;SDS011;11227;53.046;10.512;2022-12-18T15:32:01;20.95;;;18.92;;
22121;SDS011;11227;53.046;10.512;2022-12-18T15:36:08;20.85;;;18.65;;
22121;SDS011;11227;53.046;10.512;2022-12-18T15:40:23;21.20;;;19.08;;
22121;SDS011;11227;53.046;10.512;2022-12-18T15:44:25;20.58;;;18.52;;
22121;SDS011;11227;53.046;10.512;2022-12-18T15:48:27;20.15;;;18.25;;
22121;SDS011;11227;53.046;10.512;2022-12-18T15:52:29;19.35;;;17.55;;
22121;SDS011;11227;53.046;10.512;2022-12-18T15:56:32;20.88;;;18.40;;
22121;SDS011;11227;53.046;10.512;2022-12-18T16:00:52;22.15;;;18.42;;
22121;SDS011;11227;53.046;10.512;2022-12-18T16:04:56;19.85;;;17.85;;
22121;SDS011;11227;53.046;10.512;2022-12-18T16:08:58;21.67;;;19.33;;
22121;SDS011;11227;53.046;10.512;2022-12-18T16:12:59;19.88;;;17.08;;
22121;SDS011;11227;53.046;10.512;2022-12-18T16:17:02;20.60;;;18.52;;
22121;SDS011;11227;53.046;10.512;2022-12-18T16:21:07;19.85;;;17.85;;
22121;SDS011;11227;53.046;10.512;2022-12-18T16:25:30;18.42;;;16.52;;
22121;SDS011;11227;53.046;10.512;2022-12-18T16:29:31;19.08;;;17.08;;
22121;SDS011;11227;53.046;10.512;2022-12-18T16:33:34;19.55;;;17.65;;
22121;SDS011;11227;53.046;10.512;2022-12-18T16:37:35;17.08;;;15.27;;
22121;SDS011;11227;53.046;10.512;2022-12-18T16:41:37;18.95;;;16.95;;
22121;SDS011;11227;53.046;10.512;2022-12-18T16:45:39;18.15;;;16.35;;
22121;SDS011;11227;53.046;10.512;2022-12-18T16:49:40;18.23;;;16.33;;
22121;SDS011;11227;53.046;10.512;2022-12-18T16:53:43;17.38;;;15.57;;
22121;SDS011;11227;53.046;10.512;2022-12-18T16:57:45;16.98;;;15.38;;
22121;SDS011;11227;53.046;10.512;2022-12-18T17:01:47;16.55;;;14.85;;
22121;SDS011;11227;53.046;10.512;2022-12-18T17:05:48;16.55;;;14.95;;
22121;SDS011;11227;53.046;10.512;2022-12-18T17:09:53;17.00;;;15.30;;
22121;SDS011;11227;53.046;10.512;2022-12-18T17:13:55;16.73;;;14.52;;
22121;SDS011;11227;53.046;10.512;2022-12-18T17:17:58;15.85;;;14.23;;
22121;SDS011;11227;53.046;10.512;2022-12-18T17:21:59;15.70;;;14.07;;
22121;SDS011;11227;53.046;10.512;2022-12-18T17:26:02;16.23;;;14.57;;
22121;SDS011;11227;53.046;10.512;2022-12-18T17:30:05;15.20;;;13.70;;
22121;SDS011;11227;53.046;10.512;2022-12-18T17:34:08;15.05;;;13.57;;
22121;SDS011;11227;53.046;10.512;2022-12-18T17:38:11;15.23;;;12.98;;
22121;SDS011;11227;53.046;10.512;2022-12-18T17:42:13;15.82;;;13.30;;
22121;SDS011;11227;53.046;10.512;2022-12-18T17:46:16;15.18;;;13.68;;
22121;SDS011;11227;53.046;10.512;2022-12-18T17:50:17;13.90;;;12.50;;
22121;SDS011;11227;53.046;10.512;2022-12-18T17:54:20;14.68;;;13.18;;
22121;SDS011;11227;53.046;10.512;2022-12-18T17:58:21;15.05;;;13.48;;
22121;SDS011;11227;53.046;10.512;2022-12-18T18:02:24;14.43;;;13.02;;
22121;SDS011;11227;53.046;10.512;2022-12-18T18:06:26;13.63;;;12.35;;
22121;SDS011;11227;53.046;10.512;2022-12-18T18:10:30;13.20;;;11.93;;
22121;SDS011;11227;53.046;10.512;2022-12-18T18:14:35;14.50;;;12.93;;
22121;SDS011;11227;53.046;10.512;2022-12-18T18:18:37;13.27;;;11.98;;
22121;SDS011;11227;53.046;10.512;2022-12-18T18:22:39;14.25;;;11.93;;
22121;SDS011;11227;53.046;10.512;2022-12-18T18:26:41;16.33;;;14.52;;
22121;SDS011;11227;53.046;10.512;2022-12-18T18:30:43;15.07;;;13.48;;
22121;SDS011;11227;53.046;10.512;2022-12-18T18:34:45;16.42;;;14.35;;
22121;SDS011;11227;53.046;10.512;2022-12-18T18:38:46;17.15;;;15.02;;
22121;SDS011;11227;53.046;10.512;2022-12-18T18:42:48;15.98;;;14.27;;
22121;SDS011;11227;53.046;10.512;2022-12-18T18:46:51;17.10;;;15.40;;
22121;SDS011;11227;53.046;10.512;2022-12-18T18:50:57;17.55;;;15.82;;
22121;SDS011;11227;53.046;10.512;2022-12-18T18:55:05;17.40;;;15.63;;
22121;SDS011;11227;53.046;10.512;2022-12-18T18:59:25;17.25;;;15.45;;
22121;SDS011;11227;53.046;10.512;2022-12-18T19:03:32;18.35;;;16.52;;
22121;SDS011;11227;53.046;10.512;2022-12-18T19:07:35;20.42;;;17.63;;
22121;SDS011;11227;53.046;10.512;2022-12-18T19:11:37;20.38;;;18.23;;
22121;SDS011;11227;53.046;10.512;2022-12-18T19:16:02;19.35;;;17.35;;
22121;SDS011;11227;53.046;10.512;2022-12-18T19:20:06;20.98;;;18.77;;
22121;SDS011;11227;53.046;10.512;2022-12-18T19:24:10;19.45;;;17.45;;
22121;SDS011;11227;53.046;10.512;2022-12-18T19:28:12;20.40;;;17.98;;
22121;SDS011;11227;53.046;10.512;2022-12-18T19:32:22;19.88;;;17.77;;
22121;SDS011;11227;53.046;10.512;2022-12-18T19:36:27;19.50;;;17.42;;
22121;SDS011;11227;53.046;10.512;2022-12-18T19:40:30;19.33;;;17.38;;
22121;SDS011;11227;53.046;10.512;2022-12-18T19:44:32;20.15;;;18.05;;
22121;SDS011;11227;53.046;10.512;2022-12-18T19:48:34;21.05;;;18.65;;
22121;SDS011;11227;53.046;10.512;2022-12-18T19:52:36;20.67;;;17.83;;
22121;SDS011;11227;53.046;10.512;2022-12-18T19:56:38;18.98;;;16.98;;
22121;SDS011;11227;53.046;10.512;2022-12-18T20:00:40;19.33;;;17.17;;
22121;SDS011;11227;53.046;10.512;2022-12-18T20:04:42;18.60;;;16.60;;
22121;SDS011;11227;53.046;10.512;2022-12-18T20:08:43;18.42;;;16.40;;
22121;SDS011;11227;53.046;10.512;2022-12-18T20:12:45;19.80;;;16.00;;
22121;SDS011;11227;53.046;10.512;2022-12-18T20:16:47;18.88;;;16.80;;
22121;SDS011;11227;53.046;10.512;2022-12-18T20:20:49;19.73;;;15.82;;
22121;SDS011;11227;53.046;10.512;2022-12-18T20:24:52;19.83;;;16.50;;
22121;SDS011;11227;53.046;10.512;2022-12-18T20:28:54;17.33;;;15.40;;
22121;SDS011;11227;53.046;10.512;2022-12-18T20:32:56;18.80;;;16.63;;
22121;SDS011;11227;53.046;10.512;2022-12-18T20:36:58;18.42;;;15.50;;
22121;SDS011;11227;53.046;10.512;2022-12-18T20:41:00;17.27;;;14.88;;
22121;SDS011;11227;53.046;10.512;2022-12-18T20:45:02;18.17;;;15.25;;
22121;SDS011;11227;53.046;10.512;2022-12-18T20:49:05;19.20;;;16.23;;
22121;SDS011;11227;53.046;10.512;2022-12-18T20:53:06;17.52;;;14.88;;
22121;SDS011;11227;53.046;10.512;2022-12-18T20:57:08;19.52;;;14.50;;
22121;SDS011;11227;53.046;10.512;2022-12-18T21:01:11;15.20;;;13.60;;
22121;SDS011;11227;53.046;10.512;2022-12-18T21:05:18;17.08;;;14.32;;
22121;SDS011;11227;53.046;10.512;2022-12-18T21:09:19;14.60;;;12.82;;
22121;SDS011;11227;53.046;10.512;2022-12-18T21:13:21;16.33;;;14.00;;
22121;SDS011;11227;53.046;10.512;2022-12-18T21:17:23;15.93;;;14.07;;
22121;SDS011;11227;53.046;10.512;2022-12-18T21:21:27;20.92;;;13.88;;
22121;SDS011;11227;53.046;10.512;2022-12-18T21:25:32;14.70;;;12.57;;
22121;SDS011;11227;53.046;10.512;2022-12-18T21:29:34;15.43;;;13.07;;
22121;SDS011;11227;53.046;10.512;2022-12-18T21:33:36;15.38;;;12.68;;
22121;SDS011;11227;53.046;10.512;2022-12-18T21:37:38;17.30;;;11.80;;
22121;SDS011;11227;53.046;10.512;2022-12-18T21:41:40;14.93;;;12.05;;
22121;SDS011;11227;53.046;10.512;2022-12-18T21:46:00;15.63;;;12.55;;
22121;SDS011;11227;53.046;10.512;2022-12-18T21:50:02;15.68;;;11.73;;
22121;SDS011;11227;53.046;10.512;2022-12-18T21:54:04;15.93;;;11.15;;
22121;SDS011;11227;53.046;10.512;2022-12-18T21:58:06;13.88;;;11.43;;
22121;SDS011;11227;53.046;10.512;2022-12-18T22:02:12;13.57;;;10.45;;
22121;SDS011;11227;53.046;10.512;2022-12-18T22:06:19;12.18;;;10.02;;
22121;SDS011;11227;53.046;10.512;2022-12-18T22:10:22;14.10;;;9.70;;
22121;SDS011;11227;53.046;10.512;2022-12-18T22:14:24;12.07;;;9.98;;
22121;SDS011;11227;53.046;10.512;2022-12-18T22:18:26;13.95;;;10.30;;
22121;SDS011;11227;53.046;10.512;2022-12-18T22:22:28;12.90;;;9.45;;
22121;SDS011;11227;53.046;10.512;2022-12-18T22:26:30;12.75;;;9.13;;
22121;SDS011;11227;53.046;10.512;2022-12-18T22:30:40;11.45;;;9.43;;
22121;SDS011;11227;53.046;10.512;2022-12-18T22:34:42;12.00;;;9.38;;
22121;SDS011;11227;53.046;10.512;2022-12-18T22:38:45;10.25;;;8.77;;
22121;SDS011;11227;53.046;10.512;2022-12-18T22:42:47;10.43;;;8.60;;
22121;SDS011;11227;53.046;10.512;2022-12-18T22:46:51;11.38;;;8.82;;
22121;SDS011;11227;53.046;10.512;2022-12-18T22:51:10;10.70;;;8.40;;
22121;SDS011;11227;53.046;10.512;2022-12-18T22:55:15;11.55;;;9.60;;
22121;SDS011;11227;53.046;10.512;2022-12-18T22:59:18;11.35;;;8.98;;
22121;SDS011;11227;53.046;10.512;2022-12-18T23:03:22;13.47;;;8.17;;
22121;SDS011;11227;53.046;10.512;2022-12-18T23:07:25;11.90;;;8.63;;
22121;SDS011;11227;53.046;10.512;2022-12-18T23:11:27;10.38;;;8.02;;
22121;SDS011;11227;53.046;10.512;2022-12-18T23:15:29;11.55;;;8.20;;
22121;SDS011;11227;53.046;10.512;2022-12-18T23:19:31;9.48;;;7.72;;
22121;SDS011;11227;53.046;10.512;2022-12-18T23:23:34;10.13;;;7.28;;
22121;SDS011;11227;53.046;10.512;2022-12-18T23:27:36;9.70;;;7.28;;
22121;SDS011;11227;53.046;10.512;2022-12-18T23:31:38;10.57;;;7.50;;
22121;SDS011;11227;53.046;10.512;2022-12-18T23:35:40;9.23;;;7.38;;
22121;SDS011;11227;53.046;10.512;2022-12-18T23:39:41;9.82;;;7.53;;
22121;SDS011;11227;53.046;10.512;2022-12-18T23:43:43;9.38;;;7.03;;
22121;SDS011;11227;53.046;10.512;2022-12-18T23:47:46;9.57;;;6.97;;
22121;SDS011;11227;53.046;10.512;2022-12-18T23:51:52;7.72;;;6.93;;
22121;SDS011;11227;53.046;10.512;2022-12-18T23:55:54;9.48;;;7.10;;
22121;SDS011;11227;53.046;10.512;2022-12-18T23:59:57;9.32;;;6.75;;
